Time,TemperatureF,DewpointF,PressureIn,WindDirection,WindDirectionDegrees,WindSpeedMPH,WindSpeedGustMPH,Humidity,HourlyPrecipIn,Conditions,Clouds,dailyrainin,SoftwareType,DateUTC
2013-07-20 00:04:00,78.0,69.4,29.86,NNE,22,0.0,0.0,75,0.00,,SKC,0.00,VWS V14.01,2013-07-20 07:04:00,
2013-07-20 00:09:00,78.0,69.4,29.86,NNE,22,0.0,0.0,75,0.00,,SKC,0.00,VWS V14.01,2013-07-20 07:09:00,
2013-07-20 00:15:00,78.0,69.4,29.86,NNE,22,0.0,0.0,75,0.00,,SKC,0.00,VWS V14.01,2013-07-20 07:15:00,
2013-07-20 00:20:00,78.0,69.8,29.85,NE,45,0.0,0.0,76,0.00,,SKC,0.00,VWS V14.01,2013-07-20 07:20:00,
2013-07-20 00:25:00,78.0,70.2,29.85,ENE,68,1.0,2.0,77,0.00,,SKC,0.00,VWS V14.01,2013-07-20 07:25:00,
2013-07-20 00:30:00,78.0,70.6,29.85,East,90,0.0,0.0,78,0.00,,SKC,0.00,VWS V14.01,2013-07-20 07:30:00,
2013-07-20 00:35:00,78.0,70.6,29.86,ENE,68,0.0,0.0,78,0.00,,SKC,0.00,VWS V14.01,2013-07-20 07:35:00,
2013-07-20 00:40:00,78.0,70.6,29.86,NNE,22,0.0,0.0,78,0.00,,SKC,0.00,VWS V14.01,2013-07-20 07:40:00,
2013-07-20 00:46:00,78.0,70.6,29.85,North,0,0.0,1.0,78,0.00,,SKC,0.00,VWS V14.01,2013-07-20 07:46:00,
2013-07-20 00:52:00,78.0,70.6,29.85,NNE,22,0.0,0.0,78,0.00,,SKC,0.00,VWS V14.01,2013-07-20 07:52:00,
2013-07-20 00:57:00,78.0,70.6,29.85,NNE,22,0.0,0.0,78,0.00,,SKC,0.00,VWS V14.01,2013-07-20 07:57:00,
2013-07-20 01:02:00,78.0,70.2,29.85,NNE,22,0.0,0.0,77,0.00,,SKC,0.00,VWS V14.01,2013-07-20 08:02:00,
2013-07-20 01:07:00,78.0,70.2,29.85,ENE,68,0.0,0.0,77,0.00,,SKC,0.00,VWS V14.01,2013-07-20 08:07:00,
2013-07-20 01:12:00,78.0,70.2,29.85,ENE,68,0.0,0.0,77,0.00,,SKC,0.00,VWS V14.01,2013-07-20 08:12:00,
2013-07-20 01:17:00,78.0,69.8,29.85,ENE,68,0.0,0.0,76,0.00,,SKC,0.00,VWS V14.01,2013-07-20 08:17:00,
2013-07-20 01:23:00,78.0,70.2,29.85,ENE,68,0.0,0.0,77,0.00,,SKC,0.00,VWS V14.01,2013-07-20 08:23:00,
2013-07-20 01:28:00,78.0,69.8,29.85,NNW,338,0.0,0.0,76,0.00,,SKC,0.00,VWS V14.01,2013-07-20 08:28:00,
2013-07-20 01:33:00,78.0,69.8,29.85,NW,315,0.0,1.0,76,0.00,,SKC,0.00,VWS V14.01,2013-07-20 08:33:00,
2013-07-20 01:38:00,78.0,69.1,29.85,WNW,292,5.0,6.0,74,0.00,,SKC,0.00,VWS V14.01,2013-07-20 08:38:00,
2013-07-20 01:43:00,78.0,68.7,29.85,West,270,4.0,5.0,73,0.00,,SKC,0.00,VWS V14.01,2013-07-20 08:43:00,
2013-07-20 01:49:00,78.0,68.7,29.85,West,270,4.0,4.0,73,0.00,,SKC,0.00,VWS V14.01,2013-07-20 08:49:00,
2013-07-20 01:55:00,78.0,67.8,29.85,West,270,6.0,6.0,71,0.00,,SKC,0.00,VWS V14.01,2013-07-20 08:55:00,
2013-07-20 02:01:00,78.0,67.8,29.85,WSW,248,5.0,6.0,71,0.00,,SKC,0.00,VWS V14.01,2013-07-20 09:01:00,
2013-07-20 02:07:00,77.0,66.5,29.85,NW,315,2.0,3.0,70,0.00,,SKC,0.00,VWS V14.01,2013-07-20 09:07:00,
2013-07-20 02:13:00,78.0,67.4,29.85,North,0,0.0,0.0,70,0.00,,SKC,0.00,VWS V14.01,2013-07-20 09:13:00,
2013-07-20 02:18:00,78.0,67.4,29.85,SW,225,0.0,0.0,70,0.00,,SKC,0.00,VWS V14.01,2013-07-20 09:18:00,
2013-07-20 02:23:00,78.0,67.8,29.85,SSE,158,0.0,0.0,71,0.00,,SKC,0.00,VWS V14.01,2013-07-20 09:23:00,
2013-07-20 02:28:00,78.0,67.8,29.85,WSW,248,0.0,0.0,71,0.00,,SKC,0.00,VWS V14.01,2013-07-20 09:28:00,
2013-07-20 02:34:00,77.0,66.5,29.86,WNW,292,0.0,0.0,70,0.00,,SKC,0.00,VWS V14.01,2013-07-20 09:34:00,
2013-07-20 02:40:00,77.0,66.5,29.86,NW,315,0.0,0.0,70,0.00,,SKC,0.00,VWS V14.01,2013-07-20 09:40:00,
2013-07-20 02:45:00,77.0,66.5,29.85,WNW,292,0.0,0.0,70,0.00,,SKC,0.00,VWS V14.01,2013-07-20 09:45:00,
2013-07-20 02:50:00,77.0,66.5,29.85,West,270,0.0,0.0,70,0.00,,SKC,0.00,VWS V14.01,2013-07-20 09:50:00,
2013-07-20 02:55:00,77.0,66.5,29.85,WSW,248,1.0,1.0,70,0.00,,SKC,0.00,VWS V14.01,2013-07-20 09:55:00,
2013-07-20 03:01:00,77.0,66.5,29.85,WNW,292,1.0,2.0,70,0.00,,SKC,0.00,VWS V14.01,2013-07-20 10:01:00,
2013-07-20 03:06:00,77.0,66.9,29.85,WSW,248,4.0,4.0,71,0.00,,SKC,0.00,VWS V14.01,2013-07-20 10:06:00,
2013-07-20 03:12:00,77.0,66.9,29.85,West,270,2.0,3.0,71,0.00,,SKC,0.00,VWS V14.01,2013-07-20 10:12:00,
2013-07-20 03:18:00,77.0,66.9,29.85,West,270,5.0,6.0,71,0.00,,SKC,0.00,VWS V14.01,2013-07-20 10:18:00,
2013-07-20 03:24:00,77.0,66.9,29.85,WSW,248,5.0,6.0,71,0.00,,SKC,0.00,VWS V14.01,2013-07-20 10:24:00,
2013-07-20 03:29:00,77.0,66.9,29.84,West,270,5.0,5.0,71,0.00,,SKC,0.00,VWS V14.01,2013-07-20 10:29:00,
2013-07-20 03:34:00,77.0,66.9,29.84,WSW,248,5.0,5.0,71,0.00,,SKC,0.00,VWS V14.01,2013-07-20 10:34:00,
2013-07-20 03:39:00,77.0,66.9,29.84,West,270,0.0,0.0,71,0.00,,SKC,0.00,VWS V14.01,2013-07-20 10:39:00,
2013-07-20 03:45:00,77.0,66.9,29.84,WSW,248,0.0,0.0,71,0.00,,SKC,0.00,VWS V14.01,2013-07-20 10:45:00,
2013-07-20 03:51:00,77.0,66.9,29.84,WSW,248,0.0,0.0,71,0.00,,SKC,0.00,VWS V14.01,2013-07-20 10:51:00,
2013-07-20 03:56:00,77.0,67.3,29.84,SSE,158,1.0,1.0,72,0.00,,SKC,0.00,VWS V14.01,2013-07-20 10:56:00,
2013-07-20 04:01:00,77.0,67.3,29.84,SSE,158,0.0,0.0,72,0.00,,SKC,0.00,VWS V14.01,2013-07-20 11:01:00,
2013-07-20 04:06:00,76.0,66.7,29.84,SSE,158,0.0,0.0,73,0.00,,SKC,0.00,VWS V14.01,2013-07-20 11:06:00,
2013-07-20 04:11:00,76.0,67.1,29.84,SSE,158,0.0,0.0,74,0.00,,SKC,0.00,VWS V14.01,2013-07-20 11:11:00,
2013-07-20 04:17:00,76.0,67.1,29.84,SSE,158,0.0,0.0,74,0.00,,SKC,0.00,VWS V14.01,2013-07-20 11:17:00,
2013-07-20 04:23:00,76.0,67.5,29.83,SSE,158,0.0,0.0,75,0.00,,SKC,0.00,VWS V14.01,2013-07-20 11:23:00,
2013-07-20 04:28:00,76.0,67.5,29.83,SSE,158,0.0,0.0,75,0.00,,SKC,0.00,VWS V14.01,2013-07-20 11:28:00,
2013-07-20 04:33:00,75.0,66.9,29.83,SSE,158,0.0,0.0,76,0.00,,SKC,0.00,VWS V14.01,2013-07-20 11:33:00,
2013-07-20 04:38:00,75.0,66.9,29.84,SSE,158,0.0,0.0,76,0.00,,SKC,0.00,VWS V14.01,2013-07-20 11:38:00,
2013-07-20 04:43:00,75.0,67.3,29.84,WSW,248,0.0,0.0,77,0.00,,SKC,0.00,VWS V14.01,2013-07-20 11:43:00,
2013-07-20 04:49:00,75.0,67.3,29.83,WSW,248,3.0,3.0,77,0.00,,SKC,0.00,VWS V14.01,2013-07-20 11:49:00,
2013-07-20 04:55:00,75.0,67.3,29.83,West,270,1.0,1.0,77,0.00,,SKC,0.00,VWS V14.01,2013-07-20 11:55:00,
2013-07-20 05:00:00,75.0,66.9,29.83,West,270,0.0,0.0,76,0.00,,SKC,0.00,VWS V14.01,2013-07-20 12:00:00,
2013-07-20 05:05:00,75.0,66.9,29.83,SW,225,0.0,0.0,76,0.00,,SKC,0.00,VWS V14.01,2013-07-20 12:05:00,
2013-07-20 05:10:00,75.0,67.3,29.84,SW,225,0.0,0.0,77,0.00,,SKC,0.00,VWS V14.01,2013-07-20 12:10:00,
2013-07-20 05:16:00,75.0,67.7,29.84,SW,225,0.0,0.0,78,0.00,,SKC,0.00,VWS V14.01,2013-07-20 12:16:00,
2013-07-20 05:22:00,74.0,67.1,29.84,SW,225,0.0,0.0,79,0.00,,SKC,0.00,VWS V14.01,2013-07-20 12:22:00,
2013-07-20 05:27:00,74.0,67.1,29.84,West,270,0.0,0.0,79,0.00,,SKC,0.00,VWS V14.01,2013-07-20 12:27:00,
2013-07-20 05:32:00,74.0,67.1,29.84,WNW,292,0.0,0.0,79,0.00,,SKC,0.00,VWS V14.01,2013-07-20 12:32:00,
2013-07-20 05:37:00,74.0,67.1,29.84,WSW,248,0.0,0.0,79,0.00,,SKC,0.00,VWS V14.01,2013-07-20 12:37:00,
2013-07-20 05:42:00,74.0,67.1,29.84,WSW,248,0.0,0.0,79,0.00,,SKC,0.00,VWS V14.01,2013-07-20 12:42:00,
2013-07-20 05:48:00,74.0,67.1,29.84,WSW,248,3.0,4.0,79,0.00,,SKC,0.00,VWS V14.01,2013-07-20 12:48:00,
2013-07-20 05:53:00,74.0,67.4,29.85,West,270,0.0,1.0,80,0.00,,SKC,0.00,VWS V14.01,2013-07-20 12:53:00,
2013-07-20 05:58:00,74.0,67.4,29.85,West,270,0.0,0.0,80,0.00,,SKC,0.00,VWS V14.01,2013-07-20 12:58:00,
2013-07-20 06:03:00,74.0,67.4,29.85,WNW,292,0.0,0.0,80,0.00,,SKC,0.00,VWS V14.01,2013-07-20 13:03:00,
2013-07-20 06:08:00,74.0,67.4,29.86,West,270,4.0,4.0,80,0.00,,SKC,0.00,VWS V14.01,2013-07-20 13:08:00,
2013-07-20 06:14:00,74.0,67.4,29.86,West,270,5.0,5.0,80,0.00,,SKC,0.00,VWS V14.01,2013-07-20 13:14:00,
2013-07-20 06:20:00,75.0,68.4,29.87,West,270,4.0,4.0,80,0.00,,SKC,0.00,VWS V14.01,2013-07-20 13:20:00,
2013-07-20 06:25:00,75.0,68.1,29.87,WSW,248,3.0,3.0,79,0.00,,SKC,0.00,VWS V14.01,2013-07-20 13:25:00,
2013-07-20 06:30:00,75.0,67.7,29.88,West,270,4.0,5.0,78,0.00,,SKC,0.00,VWS V14.01,2013-07-20 13:30:00,
2013-07-20 06:35:00,75.0,67.7,29.88,WSW,248,4.0,5.0,78,0.00,,SKC,0.00,VWS V14.01,2013-07-20 13:35:00,
2013-07-20 06:41:00,75.0,67.7,29.89,WSW,248,3.0,3.0,78,0.00,,SKC,0.00,VWS V14.01,2013-07-20 13:41:00,
2013-07-20 06:47:00,75.0,67.3,29.89,West,270,3.0,3.0,77,0.00,,SKC,0.00,VWS V14.01,2013-07-20 13:47:00,
2013-07-20 06:52:00,75.0,67.3,29.89,West,270,0.0,0.0,77,0.00,,SKC,0.00,VWS V14.01,2013-07-20 13:52:00,
2013-07-20 06:58:00,75.0,67.3,29.89,West,270,0.0,0.0,77,0.00,,SKC,0.00,VWS V14.01,2013-07-20 13:58:00,
2013-07-20 07:03:00,76.0,68.3,29.89,West,270,0.0,0.0,77,0.00,,SKC,0.00,VWS V14.01,2013-07-20 14:03:00,
2013-07-20 07:08:00,76.0,67.9,29.89,SE,135,0.0,0.0,76,0.00,,SKC,0.00,VWS V14.01,2013-07-20 14:08:00,
2013-07-20 07:14:00,77.0,68.5,29.89,SSE,158,0.0,0.0,75,0.00,,SKC,0.00,VWS V14.01,2013-07-20 14:14:00,
2013-07-20 07:20:00,77.0,68.5,29.89,NNW,338,0.0,0.0,75,0.00,,SKC,0.00,VWS V14.01,2013-07-20 14:20:00,
2013-07-20 07:25:00,77.0,68.1,29.89,NNW,338,0.0,0.0,74,0.00,,SKC,0.00,VWS V14.01,2013-07-20 14:25:00,
2013-07-20 07:30:00,77.0,67.7,29.89,SSW,202,0.0,0.0,73,0.00,,SKC,0.00,VWS V14.01,2013-07-20 14:30:00,
2013-07-20 07:35:00,78.0,68.7,29.90,SSW,202,0.0,0.0,73,0.00,,SKC,0.00,VWS V14.01,2013-07-20 14:35:00,
2013-07-20 07:40:00,78.0,68.2,29.90,ESE,112,3.0,3.0,72,0.00,,SKC,0.00,VWS V14.01,2013-07-20 14:40:00,
2013-07-20 07:45:00,78.0,67.8,29.90,ENE,68,0.0,0.0,71,0.00,,SKC,0.00,VWS V14.01,2013-07-20 14:45:00,
2013-07-20 07:50:00,78.0,67.8,29.89,SSW,202,0.0,0.0,71,0.00,,SKC,0.00,VWS V14.01,2013-07-20 14:50:00,
2013-07-20 07:55:00,78.0,67.8,29.89,SW,225,0.0,0.0,71,0.00,,SKC,0.00,VWS V14.01,2013-07-20 14:55:00,
2013-07-20 08:01:00,78.0,67.8,29.90,SW,225,0.0,0.0,71,0.00,,SKC,0.00,VWS V14.01,2013-07-20 15:01:00,
2013-07-20 08:06:00,78.0,68.2,29.89,West,270,0.0,0.0,72,0.00,,SKC,0.00,VWS V14.01,2013-07-20 15:06:00,
2013-07-20 08:11:00,78.0,67.8,29.89,West,270,2.0,3.0,71,0.00,,SKC,0.00,VWS V14.01,2013-07-20 15:11:00,
2013-07-20 08:16:00,78.0,67.8,29.89,WNW,292,0.0,0.0,71,0.00,,SKC,0.00,VWS V14.01,2013-07-20 15:16:00,
2013-07-20 08:21:00,79.0,68.4,29.90,North,0,1.0,2.0,70,0.00,,SKC,0.00,VWS V14.01,2013-07-20 15:21:00,
2013-07-20 08:26:00,79.0,68.0,29.89,West,270,1.0,2.0,69,0.00,,SKC,0.00,VWS V14.01,2013-07-20 15:26:00,
2013-07-20 08:32:00,79.0,67.6,29.89,West,270,0.0,1.0,68,0.00,,SKC,0.00,VWS V14.01,2013-07-20 15:32:00,
2013-07-20 08:37:00,80.0,68.5,29.89,WSW,248,0.0,1.0,68,0.00,,SKC,0.00,VWS V14.01,2013-07-20 15:37:00,
2013-07-20 08:42:00,80.0,68.1,29.89,WNW,292,2.0,2.0,67,0.00,,SKC,0.00,VWS V14.01,2013-07-20 15:42:00,
2013-07-20 08:47:00,80.0,67.6,29.89,West,270,3.0,3.0,66,0.00,,SKC,0.00,VWS V14.01,2013-07-20 15:47:00,
2013-07-20 08:52:00,80.0,67.6,29.89,WSW,248,7.0,8.0,66,0.00,,SKC,0.00,VWS V14.01,2013-07-20 15:52:00,
2013-07-20 08:58:00,79.0,66.7,29.88,WSW,248,10.0,11.0,66,0.00,,SKC,0.00,VWS V14.01,2013-07-20 15:58:00,
2013-07-20 09:04:00,79.0,67.1,29.89,WNW,292,10.0,11.0,67,0.00,,SKC,0.00,VWS V14.01,2013-07-20 16:04:00,
2013-07-20 09:09:00,79.0,67.1,29.89,West,270,7.0,8.0,67,0.00,,SKC,0.00,VWS V14.01,2013-07-20 16:09:00,
2013-07-20 09:14:00,80.0,67.6,29.88,West,270,7.0,8.0,66,0.00,,SKC,0.00,VWS V14.01,2013-07-20 16:14:00,
2013-07-20 09:19:00,80.0,67.2,29.88,NW,315,8.0,9.0,65,0.00,,SKC,0.00,VWS V14.01,2013-07-20 16:19:00,
2013-07-20 09:24:00,80.0,66.7,29.88,WNW,292,5.0,5.0,64,0.00,,SKC,0.00,VWS V14.01,2013-07-20 16:24:00,
2013-07-20 09:29:00,81.0,67.2,29.88,WSW,248,5.0,5.0,63,0.00,,SKC,0.00,VWS V14.01,2013-07-20 16:29:00,
2013-07-20 09:34:00,82.0,67.7,29.88,NW,315,5.0,5.0,62,0.00,,SKC,0.00,VWS V14.01,2013-07-20 16:34:00,
2013-07-20 09:39:00,82.0,67.7,29.88,NW,315,5.0,5.0,62,0.00,,SKC,0.00,VWS V14.01,2013-07-20 16:39:00,
2013-07-20 09:44:00,82.0,67.7,29.88,WNW,292,9.0,10.0,62,0.00,,SKC,0.00,VWS V14.01,2013-07-20 16:44:00,
2013-07-20 09:49:00,82.0,67.7,29.88,WNW,292,4.0,5.0,62,0.00,,SKC,0.00,VWS V14.01,2013-07-20 16:49:00,
2013-07-20 09:54:00,83.0,68.7,29.88,West,270,2.0,3.0,62,0.00,,SKC,0.00,VWS V14.01,2013-07-20 16:54:00,
2013-07-20 09:59:00,83.0,68.2,29.87,NNE,22,3.0,3.0,61,0.00,,SKC,0.00,VWS V14.01,2013-07-20 16:59:00,
2013-07-20 10:04:00,83.0,67.7,29.87,WNW,292,3.0,3.0,60,0.00,,SKC,0.00,VWS V14.01,2013-07-20 17:04:00,
2013-07-20 10:09:00,83.0,67.7,29.88,WNW,292,6.0,6.0,60,0.00,,SKC,0.00,VWS V14.01,2013-07-20 17:09:00,
2013-07-20 10:14:00,83.0,67.7,29.88,NNW,338,5.0,5.0,60,0.00,,SKC,0.00,VWS V14.01,2013-07-20 17:14:00,
2013-07-20 10:19:00,83.0,67.7,29.87,NNE,22,4.0,4.0,60,0.00,,SKC,0.00,VWS V14.01,2013-07-20 17:19:00,
2013-07-20 10:24:00,83.0,67.7,29.87,NNW,338,1.0,2.0,60,0.00,,SKC,0.00,VWS V14.01,2013-07-20 17:24:00,
2013-07-20 10:29:00,83.0,67.2,29.87,North,0,1.0,2.0,59,0.00,,SKC,0.00,VWS V14.01,2013-07-20 17:29:00,
2013-07-20 10:34:00,83.0,67.7,29.88,NNW,338,3.0,3.0,60,0.00,,SKC,0.00,VWS V14.01,2013-07-20 17:34:00,
2013-07-20 10:39:00,83.0,67.2,29.87,NW,315,6.0,8.0,59,0.00,,SKC,0.00,VWS V14.01,2013-07-20 17:39:00,
2013-07-20 10:44:00,83.0,67.7,29.87,WNW,292,3.0,5.0,60,0.00,,SKC,0.00,VWS V14.01,2013-07-20 17:44:00,
2013-07-20 10:49:00,84.0,67.7,29.87,NW,315,4.0,5.0,58,0.00,,SKC,0.00,VWS V14.01,2013-07-20 17:49:00,
2013-07-20 10:54:00,85.0,68.1,29.87,NNW,338,1.0,1.0,57,0.00,,SKC,0.00,VWS V14.01,2013-07-20 17:54:00,
2013-07-20 10:59:00,86.0,68.0,29.87,NW,315,6.0,7.0,55,0.00,,SKC,0.00,VWS V14.01,2013-07-20 17:59:00,
2013-07-20 11:04:00,87.0,67.8,29.86,SSW,202,3.0,4.0,53,0.00,,SKC,0.00,VWS V14.01,2013-07-20 18:04:00,
2013-07-20 11:09:00,88.0,67.6,29.86,SE,135,3.0,4.0,51,0.00,,SKC,0.00,VWS V14.01,2013-07-20 18:09:00,
2013-07-20 11:14:00,88.0,67.6,29.86,ESE,112,4.0,5.0,51,0.00,,SKC,0.00,VWS V14.01,2013-07-20 18:14:00,
2013-07-20 11:19:00,89.0,66.8,29.86,ENE,68,3.0,3.0,48,0.00,,SKC,0.00,VWS V14.01,2013-07-20 18:19:00,
2013-07-20 11:25:00,89.0,66.8,29.85,NNE,22,6.0,7.0,48,0.00,,SKC,0.00,VWS V14.01,2013-07-20 18:25:00,
2013-07-20 11:30:00,90.0,67.7,29.85,North,0,3.0,3.0,48,0.00,,SKC,0.00,VWS V14.01,2013-07-20 18:30:00,
2013-07-20 11:35:00,90.0,67.1,29.85,North,0,3.0,3.0,47,0.00,,SKC,0.00,VWS V14.01,2013-07-20 18:35:00,
2013-07-20 11:43:00,90.0,66.5,29.84,WNW,292,3.0,3.0,46,0.00,,SKC,0.00,VWS V14.01,2013-07-20 18:43:00,
2013-07-20 11:48:00,90.0,65.8,29.84,NNW,338,0.0,1.0,45,0.00,,SKC,0.00,VWS V14.01,2013-07-20 18:48:00,
2013-07-20 11:53:00,89.0,66.8,29.84,West,270,6.0,6.0,48,0.00,,SKC,0.00,VWS V14.01,2013-07-20 18:53:00,
2013-07-20 11:58:00,88.0,66.5,29.83,WSW,248,5.0,6.0,49,0.00,,SKC,0.00,VWS V14.01,2013-07-20 18:58:00,
2013-07-20 12:03:00,88.0,66.5,29.83,WSW,248,3.0,4.0,49,0.00,,SKC,0.00,VWS V14.01,2013-07-20 19:03:00,
2013-07-20 12:08:00,88.0,67.1,29.83,WNW,292,5.0,8.0,50,0.00,,SKC,0.00,VWS V14.01,2013-07-20 19:08:00,
2013-07-20 12:14:00,87.0,66.7,29.83,WNW,292,8.0,10.0,51,0.00,,SKC,0.00,VWS V14.01,2013-07-20 19:14:00,
2013-07-20 12:22:00,89.0,67.4,29.82,North,0,3.0,3.0,49,0.00,,SKC,0.00,VWS V14.01,2013-07-20 19:22:00,
2013-07-20 12:27:00,90.0,66.5,29.82,NW,315,6.0,7.0,46,0.00,,SKC,0.00,VWS V14.01,2013-07-20 19:27:00,
2013-07-20 12:32:00,91.0,66.7,29.81,South,180,0.0,1.0,45,0.00,,SKC,0.00,VWS V14.01,2013-07-20 19:32:00,
2013-07-20 12:37:00,91.0,66.7,29.81,WSW,248,4.0,4.0,45,0.00,,SKC,0.00,VWS V14.01,2013-07-20 19:37:00,
2013-07-20 12:42:00,90.0,67.1,29.81,NNW,338,3.0,3.0,47,0.00,,SKC,0.00,VWS V14.01,2013-07-20 19:42:00,
2013-07-20 12:47:00,91.0,66.7,29.81,NW,315,2.0,3.0,45,0.00,,SKC,0.00,VWS V14.01,2013-07-20 19:47:00,
2013-07-20 12:52:00,92.0,67.0,29.81,East,90,3.0,3.0,44,0.00,,SKC,0.00,VWS V14.01,2013-07-20 19:52:00,
2013-07-20 12:59:00,91.0,66.7,29.80,WSW,248,5.0,8.0,45,0.00,,SKC,0.00,VWS V14.01,2013-07-20 19:59:00,
2013-07-20 13:04:00,90.0,66.5,29.80,SW,225,6.0,7.0,46,0.00,,SKC,0.00,VWS V14.01,2013-07-20 20:04:00,
2013-07-20 13:09:00,90.0,67.1,29.80,West,270,8.0,9.0,47,0.00,,SKC,0.00,VWS V14.01,2013-07-20 20:09:00,
2013-07-20 13:14:00,89.0,65.6,29.79,WNW,292,6.0,8.0,46,0.00,,SKC,0.00,VWS V14.01,2013-07-20 20:14:00,
2013-07-20 13:19:00,89.0,66.2,29.79,NW,315,8.0,9.0,47,0.00,,SKC,0.00,VWS V14.01,2013-07-20 20:19:00,
2013-07-20 13:24:00,89.0,66.8,29.79,West,270,7.0,8.0,48,0.00,,SKC,0.00,VWS V14.01,2013-07-20 20:24:00,
2013-07-20 13:29:00,88.0,65.3,29.79,WNW,292,5.0,6.0,47,0.00,,SKC,0.00,VWS V14.01,2013-07-20 20:29:00,
2013-07-20 13:34:00,88.0,65.3,29.79,West,270,3.0,3.0,47,0.00,,SKC,0.00,VWS V14.01,2013-07-20 20:34:00,
2013-07-20 13:40:00,89.0,66.2,29.79,SSW,202,2.0,3.0,47,0.00,,SKC,0.00,VWS V14.01,2013-07-20 20:40:00,
2013-07-20 13:46:00,90.0,66.5,29.79,East,90,4.0,5.0,46,0.00,,SKC,0.00,VWS V14.01,2013-07-20 20:46:00,
2013-07-20 13:51:00,83.0,69.6,29.79,NE,45,10.0,12.0,64,0.05,,SKC,0.05,VWS V14.01,2013-07-20 20:51:00,
2013-07-20 13:56:00,78.0,70.2,29.79,NNW,338,4.0,5.0,77,0.13,,SKC,0.13,VWS V14.01,2013-07-20 20:56:00,
2013-07-20 14:02:00,76.0,70.1,29.79,NNW,338,4.0,7.0,82,0.21,,SKC,0.21,VWS V14.01,2013-07-20 21:02:00,
2013-07-20 14:07:00,75.0,70.2,29.78,NW,315,8.0,8.0,85,0.22,,SKC,0.22,VWS V14.01,2013-07-20 21:07:00,
2013-07-20 14:12:00,75.0,70.9,29.78,NW,315,1.0,3.0,87,0.22,,SKC,0.22,VWS V14.01,2013-07-20 21:12:00,
2013-07-20 14:17:00,75.0,70.9,29.79,NE,45,0.0,0.0,87,0.22,,SKC,0.22,VWS V14.01,2013-07-20 21:17:00,
2013-07-20 14:22:00,76.0,71.9,29.79,NNE,22,0.0,0.0,87,0.22,,SKC,0.22,VWS V14.01,2013-07-20 21:22:00,
2013-07-20 14:28:00,76.0,71.5,29.79,West,270,7.0,11.0,86,0.22,,SKC,0.22,VWS V14.01,2013-07-20 21:28:00,
2013-07-20 14:33:00,76.0,71.9,29.78,WNW,292,10.0,10.0,87,0.22,,SKC,0.22,VWS V14.01,2013-07-20 21:33:00,
2013-07-20 14:38:00,76.0,71.2,29.77,WNW,292,5.0,6.0,85,0.22,,SKC,0.22,VWS V14.01,2013-07-20 21:38:00,
2013-07-20 14:43:00,77.0,71.1,29.77,NW,315,5.0,8.0,82,0.22,,SKC,0.22,VWS V14.01,2013-07-20 21:43:00,
2013-07-20 14:48:00,78.0,71.3,29.78,NNW,338,2.0,3.0,80,0.22,,SKC,0.22,VWS V14.01,2013-07-20 21:48:00,
2013-07-20 14:53:00,79.0,71.2,29.78,NE,45,2.0,3.0,77,0.15,,SKC,0.22,VWS V14.01,2013-07-20 21:53:00,
2013-07-20 14:58:00,79.0,70.8,29.78,ENE,68,3.0,3.0,76,0.06,,SKC,0.22,VWS V14.01,2013-07-20 21:58:00,
2013-07-20 15:03:00,80.0,71.8,29.77,North,0,0.0,0.0,76,0.01,,SKC,0.22,VWS V14.01,2013-07-20 22:03:00,
2013-07-20 15:08:00,80.0,71.4,29.77,North,0,1.0,1.0,75,0.00,,SKC,0.22,VWS V14.01,2013-07-20 22:08:00,
2013-07-20 15:13:00,80.0,71.4,29.77,ENE,68,1.0,1.0,75,0.00,,SKC,0.22,VWS V14.01,2013-07-20 22:13:00,
2013-07-20 15:18:00,80.0,71.0,29.77,SE,135,3.0,3.0,74,0.00,,SKC,0.22,VWS V14.01,2013-07-20 22:18:00,
2013-07-20 15:23:00,80.0,70.6,29.78,ENE,68,3.0,3.0,73,0.00,,SKC,0.22,VWS V14.01,2013-07-20 22:23:00,
2013-07-20 15:28:00,80.0,70.2,29.79,ENE,68,3.0,3.0,72,0.00,,SKC,0.22,VWS V14.01,2013-07-20 22:28:00,
2013-07-20 15:33:00,79.0,68.0,29.81,SE,135,21.0,23.0,69,0.00,,SKC,0.22,VWS V14.01,2013-07-20 22:33:00,
2013-07-20 15:38:00,77.0,68.1,29.81,South,180,14.0,23.0,74,0.00,,SKC,0.22,VWS V14.01,2013-07-20 22:38:00,
2013-07-20 15:43:00,76.0,67.9,29.81,SSE,158,6.0,7.0,76,0.00,,SKC,0.22,VWS V14.01,2013-07-20 22:43:00,
2013-07-20 15:48:00,77.0,68.9,29.81,South,180,5.0,6.0,76,0.00,,SKC,0.22,VWS V14.01,2013-07-20 22:48:00,
2013-07-20 15:54:00,76.0,68.3,29.81,SSE,158,9.0,12.0,77,0.00,,SKC,0.22,VWS V14.01,2013-07-20 22:54:00,
2013-07-20 15:59:00,76.0,68.3,29.82,South,180,7.0,8.0,77,0.00,,SKC,0.22,VWS V14.01,2013-07-20 22:59:00,
2013-07-20 16:04:00,76.0,68.3,29.81,SSE,158,8.0,11.0,77,0.00,,SKC,0.22,VWS V14.01,2013-07-20 23:04:00,
2013-07-20 16:09:00,75.0,68.1,29.81,SSE,158,5.0,6.0,79,0.00,,SKC,0.22,VWS V14.01,2013-07-20 23:09:00,
2013-07-20 16:19:00,75.0,68.8,29.81,SW,225,4.0,7.0,81,0.00,,SKC,0.22,VWS V14.01,2013-07-20 23:19:00,
2013-07-20 16:24:00,74.0,68.2,29.81,SSE,158,4.0,5.0,82,0.00,,SKC,0.22,VWS V14.01,2013-07-20 23:24:00,
2013-07-20 16:29:00,74.0,68.5,29.80,SW,225,10.0,11.0,83,0.00,,SKC,0.22,VWS V14.01,2013-07-20 23:29:00,
2013-07-20 16:34:00,75.0,69.1,29.79,SSW,202,10.0,10.0,82,0.00,,SKC,0.22,VWS V14.01,2013-07-20 23:34:00,
2013-07-20 16:39:00,75.0,69.1,29.79,South,180,3.0,4.0,82,0.00,,SKC,0.22,VWS V14.01,2013-07-20 23:39:00,
2013-07-20 16:44:00,75.0,68.8,29.78,SW,225,5.0,6.0,81,0.00,,SKC,0.22,VWS V14.01,2013-07-20 23:44:00,
2013-07-20 16:49:00,76.0,69.4,29.78,SW,225,3.0,5.0,80,0.00,,SKC,0.22,VWS V14.01,2013-07-20 23:49:00,
2013-07-20 16:54:00,76.0,69.4,29.79,WSW,248,3.0,3.0,80,0.00,,SKC,0.22,VWS V14.01,2013-07-20 23:54:00,
2013-07-20 17:00:00,76.0,69.0,29.79,WSW,248,2.0,3.0,79,0.00,,SKC,0.22,VWS V14.01,2013-07-21 00:00:00,
2013-07-20 17:06:00,77.0,69.2,29.79,WNW,292,3.0,3.0,77,0.00,,SKC,0.22,VWS V14.01,2013-07-21 00:06:00,
2013-07-20 17:11:00,77.0,69.2,29.79,WNW,292,6.0,6.0,77,0.00,,SKC,0.22,VWS V14.01,2013-07-21 00:11:00,
2013-07-20 17:16:00,78.0,68.7,29.79,WNW,292,6.0,8.0,73,0.00,,SKC,0.22,VWS V14.01,2013-07-21 00:16:00,
2013-07-20 17:21:00,78.0,66.2,29.79,WSW,248,3.0,3.0,67,0.00,,SKC,0.22,VWS V14.01,2013-07-21 00:21:00,
2013-07-20 17:27:00,79.0,67.6,29.78,SSE,158,5.0,5.0,68,0.00,,SKC,0.22,VWS V14.01,2013-07-21 00:27:00,
2013-07-20 17:32:00,79.0,68.8,29.79,SE,135,5.0,5.0,71,0.00,,SKC,0.22,VWS V14.01,2013-07-21 00:32:00,
2013-07-20 17:37:00,79.0,69.6,29.79,SE,135,5.0,6.0,73,0.00,,SKC,0.22,VWS V14.01,2013-07-21 00:37:00,
2013-07-20 17:42:00,79.0,69.2,29.79,ESE,112,1.0,1.0,72,0.00,,SKC,0.22,VWS V14.01,2013-07-21 00:42:00,
2013-07-20 17:47:00,79.0,69.6,29.80,SSE,158,0.0,0.0,73,0.00,,SKC,0.22,VWS V14.01,2013-07-21 00:47:00,
2013-07-20 17:53:00,79.0,69.6,29.80,SE,135,5.0,6.0,73,0.00,,SKC,0.22,VWS V14.01,2013-07-21 00:53:00,
2013-07-20 17:58:00,79.0,69.6,29.80,SE,135,7.0,7.0,73,0.00,,SKC,0.22,VWS V14.01,2013-07-21 00:58:00,
2013-07-20 18:03:00,78.0,67.4,29.80,SSE,158,8.0,11.0,70,0.00,,SKC,0.22,VWS V14.01,2013-07-21 01:03:00,
2013-07-20 18:08:00,78.0,66.6,29.80,SSE,158,8.0,11.0,68,0.00,,SKC,0.22,VWS V14.01,2013-07-21 01:08:00,
2013-07-20 18:13:00,78.0,66.2,29.80,SE,135,5.0,5.0,67,0.00,,SKC,0.22,VWS V14.01,2013-07-21 01:13:00,
2013-07-20 18:18:00,78.0,65.7,29.80,SSE,158,6.0,6.0,66,0.00,,SKC,0.22,VWS V14.01,2013-07-21 01:18:00,
2013-07-20 18:23:00,78.0,66.2,29.80,SE,135,7.0,8.0,67,0.00,,SKC,0.22,VWS V14.01,2013-07-21 01:23:00,
2013-07-20 18:28:00,78.0,66.6,29.80,South,180,7.0,10.0,68,0.00,,SKC,0.22,VWS V14.01,2013-07-21 01:28:00,
2013-07-20 18:33:00,78.0,66.6,29.80,South,180,8.0,8.0,68,0.00,,SKC,0.22,VWS V14.01,2013-07-21 01:33:00,
2013-07-20 18:38:00,78.0,66.6,29.81,SSE,158,5.0,7.0,68,0.00,,SKC,0.22,VWS V14.01,2013-07-21 01:38:00,
2013-07-20 18:43:00,78.0,66.6,29.80,SSE,158,1.0,3.0,68,0.00,,SKC,0.22,VWS V14.01,2013-07-21 01:43:00,
2013-07-20 18:48:00,78.0,67.0,29.81,SSE,158,3.0,4.0,69,0.00,,SKC,0.22,VWS V14.01,2013-07-21 01:48:00,
2013-07-20 18:53:00,78.0,67.4,29.81,SSW,202,5.0,5.0,70,0.00,,SKC,0.22,VWS V14.01,2013-07-21 01:53:00,
2013-07-20 18:59:00,78.0,67.8,29.81,South,180,3.0,5.0,71,0.00,,SKC,0.22,VWS V14.01,2013-07-21 01:59:00,
2013-07-20 19:04:00,77.0,66.9,29.81,SSW,202,3.0,3.0,71,0.00,,SKC,0.22,VWS V14.01,2013-07-21 02:04:00,
2013-07-20 19:10:00,77.0,67.3,29.82,SSW,202,1.0,2.0,72,0.00,,SKC,0.22,VWS V14.01,2013-07-21 02:10:00,
2013-07-20 19:16:00,77.0,67.7,29.82,SW,225,3.0,4.0,73,0.00,,SKC,0.22,VWS V14.01,2013-07-21 02:16:00,
2013-07-20 19:21:00,77.0,67.7,29.82,WSW,248,5.0,5.0,73,0.00,,SKC,0.22,VWS V14.01,2013-07-21 02:21:00,
2013-07-20 19:27:00,77.0,68.1,29.82,SW,225,5.0,6.0,74,0.00,,SKC,0.22,VWS V14.01,2013-07-21 02:27:00,
2013-07-20 19:32:00,77.0,68.1,29.83,SW,225,4.0,5.0,74,0.00,,SKC,0.22,VWS V14.01,2013-07-21 02:32:00,
2013-07-20 19:38:00,76.0,67.5,29.82,SSW,202,3.0,3.0,75,0.00,,SKC,0.22,VWS V14.01,2013-07-21 02:38:00,
2013-07-20 19:43:00,76.0,67.5,29.82,South,180,0.0,0.0,75,0.00,,SKC,0.22,VWS V14.01,2013-07-21 02:43:00,
2013-07-20 19:48:00,76.0,67.5,29.82,SSW,202,1.0,1.0,75,0.00,,SKC,0.22,VWS V14.01,2013-07-21 02:48:00,
2013-07-20 19:53:00,76.0,67.5,29.83,SE,135,1.0,2.0,75,0.00,,SKC,0.22,VWS V14.01,2013-07-21 02:53:00,
2013-07-20 19:59:00,76.0,67.5,29.83,SE,135,6.0,6.0,75,0.00,,SKC,0.22,VWS V14.01,2013-07-21 02:59:00,
2013-07-20 20:04:00,76.0,67.5,29.83,South,180,3.0,3.0,75,0.00,,SKC,0.22,VWS V14.01,2013-07-21 03:04:00,
2013-07-20 20:09:00,77.0,68.1,29.83,SSE,158,3.0,4.0,74,0.00,,SKC,0.22,VWS V14.01,2013-07-21 03:09:00,
2013-07-20 20:14:00,77.0,68.1,29.83,South,180,1.0,1.0,74,0.00,,SKC,0.22,VWS V14.01,2013-07-21 03:14:00,
2013-07-20 20:19:00,77.0,67.7,29.83,ESE,112,0.0,1.0,73,0.00,,SKC,0.22,VWS V14.01,2013-07-21 03:19:00,
2013-07-20 20:24:00,77.0,68.1,29.84,ESE,112,0.0,0.0,74,0.00,,SKC,0.22,VWS V14.01,2013-07-21 03:24:00,
2013-07-20 20:31:00,76.0,67.1,29.84,ESE,112,0.0,0.0,74,0.00,,SKC,0.22,VWS V14.01,2013-07-21 03:31:00,
2013-07-20 20:37:00,76.0,67.1,29.84,SSE,158,0.0,0.0,74,0.00,,SKC,0.22,VWS V14.01,2013-07-21 03:37:00,
2013-07-20 20:42:00,76.0,67.5,29.84,WNW,292,0.0,0.0,75,0.00,,SKC,0.22,VWS V14.01,2013-07-21 03:42:00,
2013-07-20 20:48:00,76.0,67.9,29.85,WNW,292,3.0,3.0,76,0.00,,SKC,0.22,VWS V14.01,2013-07-21 03:48:00,
2013-07-20 20:53:00,76.0,67.9,29.85,WNW,292,3.0,3.0,76,0.00,,SKC,0.22,VWS V14.01,2013-07-21 03:53:00,
2013-07-20 20:58:00,76.0,68.3,29.85,WNW,292,3.0,5.0,77,0.00,,SKC,0.22,VWS V14.01,2013-07-21 03:58:00,
2013-07-20 21:01:00,76.0,68.3,29.85,NW,315,3.0,4.0,77,0.00,,SKC,0.22,VWS V14.01,2013-07-21 04:01:00,
2013-07-20 21:02:00,76.0,68.3,29.85,WNW,292,4.0,4.0,77,0.00,,SKC,0.22,VWS V14.01,2013-07-21 04:02:00,
2013-07-20 21:05:00,75.0,67.7,29.85,NW,315,6.0,6.0,78,0.00,,SKC,0.22,VWS V14.01,2013-07-21 04:05:00,
2013-07-20 21:06:00,76.0,68.7,29.85,NW,315,4.0,5.0,78,0.00,,SKC,0.22,VWS V14.01,2013-07-21 04:06:00,
2013-07-20 21:11:00,75.0,68.1,29.85,WNW,292,3.0,5.0,79,0.00,,SKC,0.22,VWS V14.01,2013-07-21 04:11:00,
2013-07-20 21:16:00,75.0,68.4,29.85,NW,315,3.0,4.0,80,0.00,,SKC,0.22,VWS V14.01,2013-07-21 04:16:00,
2013-07-20 21:21:00,75.0,68.4,29.85,WNW,292,5.0,5.0,80,0.00,,SKC,0.22,VWS V14.01,2013-07-21 04:21:00,
2013-07-20 21:26:00,75.0,68.4,29.85,WNW,292,4.0,4.0,80,0.00,,SKC,0.22,VWS V14.01,2013-07-21 04:26:00,
2013-07-20 21:31:00,75.0,68.4,29.85,WNW,292,3.0,3.0,80,0.00,,SKC,0.22,VWS V14.01,2013-07-21 04:31:00,
2013-07-20 21:36:00,75.0,68.4,29.85,WNW,292,3.0,3.0,80,0.00,,SKC,0.22,VWS V14.01,2013-07-21 04:36:00,
2013-07-20 21:41:00,75.0,68.4,29.85,NW,315,3.0,3.0,80,0.00,,SKC,0.22,VWS V14.01,2013-07-21 04:41:00,
2013-07-20 21:46:00,75.0,68.4,29.86,NW,315,0.0,0.0,80,0.00,,SKC,0.22,VWS V14.01,2013-07-21 04:46:00,
2013-07-20 21:51:00,75.0,68.8,29.86,NW,315,0.0,0.0,81,0.00,,SKC,0.22,VWS V14.01,2013-07-21 04:51:00,
2013-07-20 21:56:00,75.0,68.8,29.86,NNE,22,0.0,0.0,81,0.00,,SKC,0.22,VWS V14.01,2013-07-21 04:56:00,
2013-07-20 22:01:00,75.0,68.8,29.86,ENE,68,0.0,0.0,81,0.00,,SKC,0.22,VWS V14.01,2013-07-21 05:01:00,
2013-07-20 22:06:00,75.0,68.8,29.86,ENE,68,0.0,0.0,81,0.00,,SKC,0.22,VWS V14.01,2013-07-21 05:06:00,
2013-07-20 22:11:00,75.0,68.8,29.86,ENE,68,0.0,0.0,81,0.00,,SKC,0.22,VWS V14.01,2013-07-21 05:11:00,
2013-07-20 22:17:00,75.0,68.8,29.86,ENE,68,0.0,0.0,81,0.00,,SKC,0.22,VWS V14.01,2013-07-21 05:17:00,
2013-07-20 22:22:00,75.0,68.8,29.86,ENE,68,0.0,0.0,81,0.00,,SKC,0.22,VWS V14.01,2013-07-21 05:22:00,
2013-07-20 22:27:00,75.0,68.8,29.86,NE,45,0.0,0.0,81,0.00,,SKC,0.22,VWS V14.01,2013-07-21 05:27:00,
2013-07-20 22:32:00,75.0,68.8,29.86,NE,45,0.0,0.0,81,0.00,,SKC,0.22,VWS V14.01,2013-07-21 05:32:00,
2013-07-20 22:37:00,75.0,68.8,29.86,North,0,0.0,0.0,81,0.00,,SKC,0.22,VWS V14.01,2013-07-21 05:37:00,
2013-07-20 22:42:00,75.0,68.8,29.86,North,0,0.0,0.0,81,0.00,,SKC,0.22,VWS V14.01,2013-07-21 05:42:00,
2013-07-20 22:47:00,75.0,68.8,29.86,North,0,0.0,0.0,81,0.00,,SKC,0.22,VWS V14.01,2013-07-21 05:47:00,
2013-07-20 22:52:00,75.0,69.1,29.86,North,0,0.0,0.0,82,0.00,,SKC,0.22,VWS V14.01,2013-07-21 05:52:00,
2013-07-20 22:57:00,75.0,69.1,29.86,North,0,0.0,0.0,82,0.00,,SKC,0.22,VWS V14.01,2013-07-21 05:57:00,
2013-07-20 23:02:00,75.0,69.5,29.86,North,0,0.0,0.0,83,0.00,,SKC,0.22,VWS V14.01,2013-07-21 06:02:00,
2013-07-20 23:07:00,75.0,69.5,29.86,North,0,0.0,0.0,83,0.00,,SKC,0.22,VWS V14.01,2013-07-21 06:07:00,
2013-07-20 23:12:00,75.0,69.8,29.86,North,0,0.0,0.0,84,0.00,,SKC,0.22,VWS V14.01,2013-07-21 06:12:00,
2013-07-20 23:17:00,75.0,69.8,29.86,North,0,0.0,0.0,84,0.00,,SKC,0.22,VWS V14.01,2013-07-21 06:17:00,
2013-07-20 23:22:00,75.0,69.5,29.85,North,0,0.0,0.0,83,0.00,,SKC,0.22,VWS V14.01,2013-07-21 06:22:00,
2013-07-20 23:27:00,75.0,69.5,29.85,North,0,0.0,0.0,83,0.00,,SKC,0.22,VWS V14.01,2013-07-21 06:27:00,
2013-07-20 23:32:00,75.0,69.1,29.85,WSW,248,2.0,3.0,82,0.00,,SKC,0.22,VWS V14.01,2013-07-21 06:32:00,
2013-07-20 23:37:00,75.0,69.1,29.85,WSW,248,1.0,3.0,82,0.00,,SKC,0.22,VWS V14.01,2013-07-21 06:37:00,
2013-07-20 23:42:00,75.0,69.1,29.85,SW,225,0.0,0.0,82,0.00,,SKC,0.22,VWS V14.01,2013-07-21 06:42:00,
2013-07-20 23:47:00,75.0,69.5,29.85,SSW,202,1.0,2.0,83,0.00,,SKC,0.22,VWS V14.01,2013-07-21 06:47:00,
2013-07-20 23:52:00,75.0,69.5,29.84,South,180,0.0,1.0,83,0.00,,SKC,0.22,VWS V14.01,2013-07-21 06:52:00,
2013-07-20 23:57:00,75.0,69.5,29.85,South,180,0.0,0.0,83,0.00,,SKC,0.00,VWS V14.01,2013-07-21 06:57:00,